Aktualne dane pomiarowe

Uwaga, wersja testowa! Automatyczne pobieranie danych za pomocą narzędzi lub skryptów to umożliwiających jest zabronione.

Dane meteo z obszaru Polski uzyskane na podstawie depesz SYNOP pobieranych co godzinę z NWS. Najedź myszką na symbol przedstawiony w tabeli, aby uzyskać informacje co do jego znaczenia. Prosimy pamiętać, że to testowa wersja strony, która jeszcze nie jest ukończona. Stworzono również jest krótki FAQ dotyczący korzystania z tej podstrony Anomalie temperatury w chwili obecnej odniesione są do okresu referencyjnego 1951-2016. Okres ten będzie później zmieniony na 1981-2010. Kliknij ikonę aby pobrać plik CSV. Kliknij ikonę aby wygenerować mapę synoptyczną dla danego terminu.

Wybierz Datę:    

        

Zielona Góra (12400)

Dane terminowe dla wybranej stacji. Kliknij datę, aby otrzymać dane z tego terminu dla wszystkich stacji.

TemperaturaZachmurzenieWiatrCiśnienieOpadyPogoda
 Data t td wb tx tn tg rh  Nt Nl Cl Cm Ch ws wd g1 g2 wx mslp ppp ch 24h 12h t ww ww w1 w2  
2019-06-19 23:00:00 21.6 14.7 17.1--- 6545.0wx-wxwx2wx---1008.8 986.5 -0.3---------
2019-06-19 22:00:00 22.5 14.6 17.4--- 6145.0wx-wxwx2wx---1008.9 986.7 0.2---------
2019-06-19 21:00:00 23.7 14.7 17.9--- 5745.0wx-wxwx2wx--21008.8 986.7 0.3---------
2019-06-19 20:00:00 24.6 15.2 18.5--- 5640.0wxwxwxwxwx2wx--21008.8 986.8 0.5---------
2019-06-19 19:00:00 25.5 15.2 18.9--- 5340.0wxwxwxwxwx2wx--21008.5 986.5 0.1---------
2019-06-19 18:00:00 26.4 15.1 19.2 31.3 20.7- 5040.0wxwxwxwxwx2wx--21008.3 986.4 -0.1- 0.012------
2019-06-19 17:00:00 27.7 14.3 19.3--- 4425.0wxwxwxwx2wx--21008.1 986.3 -0.8---------
2019-06-19 16:00:00 29.4 13.2 19.4--- 3730.0wxwxwx1wx--11008.1 986.4 -1.3---------
2019-06-19 15:00:00 29.8 12.2 19.1--- 3425.0wxwxwxwx2wx---1008.2 986.5 -1.9---------
2019-06-19 14:00:00 30.2 11.7 19.0--- 3230.0wxwxwxwx4wx--41008.7 987.1 -1.5---------
2019-06-19 13:00:00 30.3 12.2 19.3--- 3335.0wxwxwxwx3wx--31009.3 987.7 -1.4---------
2019-06-19 12:00:00 29.9 12.8 19.4--- 3530.0wxwxwx3wx-731010.1 988.4 -1.1- 0.06------
2019-06-19 11:00:00 27.9 13.4 18.9--- 4130.0wxwxwxwx2wx--21010.4 988.6 -1.5---------
2019-06-19 10:00:00 28.2 14.4 19.5--- 4325.0wxwxwxwx2wx--21010.9 989.1 -1.1---------
2019-06-19 09:00:00 26.4 14.5 18.9--- 4825.0wxwxwxwx3wx--31011.5 989.5 -1.0---------
2019-06-19 08:00:00 25.0 15.0 18.6--- 5425.0wx-wx2wx---1012.2 990.1 -0.4---------
2019-06-19 07:00:00 22.9 14.7 17.6--- 6025.0wxwxwxwx2wx--21012.4 990.2 -0.6---------
2019-06-19 06:00:00 20.8 14.4 16.6 24.8 17.1 17 6725.0wxwxwxwx3wx--31012.9 990.5 -0.5- 0.012----- 15.1
2019-06-19 05:00:00 19.5 14.5 16.2--- 7330.0wx-wx3wx--31013.0 990.5 -0.7---------
2019-06-19 04:00:00 17.8 13.9 15.2--- 7840.0wxwxwxwx3wx--31013.5 990.8 -0.6---------
2019-06-19 03:00:00 17.2 13.5 14.7--- 7940.0wx-wxwx3wx--31013.7 991.0 -0.7---------
2019-06-19 02:00:00 17.6 13.3 14.7--- 7640.0wx-wx3wx--31013.9 991.2 -1.0---------
2019-06-19 01:00:00 18.6 13.2 15.1--- 7150.0wx-3wx--31014.0 991.4 -1.3---------
2019-06-19 00:00:00 19.1 13.1 15.2--- 6850.0wx-3wx--31014.3 991.7 -1.2- 0.06------
2019-06-18 23:00:00 19.8 12.8 15.3--- 6450.0wx-3wx--31014.7 992.2 -0.9---------
2019-06-18 22:00:00 20.6 12.3 15.4--- 5950.0wx-wx3wx---1015.2 992.7 -0.3---------
2019-06-18 21:00:00 20.8 11.7 15.2--- 5650.0wx-wx2wx--21015.4 992.9 0.1---------
2019-06-18 20:00:00 21.6 11.6 15.5--- 5350.0wx-wx2wx--21015.5 993.1 0.0---------
2019-06-18 19:00:00 23.3 11.7 16.3--- 4850.0wx-wx3wx--31015.3 993.0 -0.3---------
2019-06-18 18:00:00 24.8 11.7 16.9 27.5 19.8- 4450.0wxwxwxwx3wx-931015.0 992.8 -0.9- 0.012------
2019-06-18 17:00:00 25.4 11.6 17.1--- 4250.0wxwxwxwx4wx---1015.2 993.1 -1.3---------
2019-06-18 16:00:00 26.1 11.8 17.5--- 4150.0wxwxwxwx3wx--31015.4 993.3 -1.7---------
2019-06-18 15:00:00 27.1 12.3 18.1--- 4050.0wxwxwxwx4wx---1015.7 993.7 -1.9---------
2019-06-18 14:00:00 26.6 9.4 16.6--- 3450.0wxwxwxwx3wx-831016.5 994.4 -1.9---------
2019-06-18 13:00:00 26.4 7.4 15.6--- 3050.0wxwxwxwx4wx-841017.1 995.0 -1.9---------
2019-06-18 12:00:00 26.0 7.6 15.6--- 3150.0wxwxwxwx4wx-841017.7 995.6 -2.0- 0.06------
2019-06-18 11:00:00 25.1 7.7 15.2--- 3350.0wxwxwxwx3wx--31018.5 996.3 -1.4---------
2019-06-18 10:00:00 24.4 8.8 15.4--- 3750.0wxwxwxwx4wx-841019.2 996.9 -1.0---------
2019-06-18 09:00:00 23.6 9.2 15.2--- 4050.0wxwxwxwx4wx--41020.0 997.6 -0.5---------
2019-06-18 08:00:00 22.8 10.6 15.5--- 4645.0wx-wx3wx--31020.1 997.7 -0.1---------
2019-06-18 07:00:00 21.2 11.8 15.4--- 5545.0wx-wx3wx---1020.4 997.9 0.3---------
2019-06-18 06:00:00 19.9 12.2 15.1 24.2 16.6 15 6145.0wx-wx2wx---1020.8 998.1 0.4-------- 12.9
2019-06-18 05:00:00 18.1 11.2 13.8--- 6450.0wx-wx2wx--21020.6 997.8 0.2---------
2019-06-18 04:00:00 17.0 10.4 12.9--- 6550.0wx-wx2wx--21020.5 997.6 -0.1---------
2019-06-18 03:00:00 16.8 10.2 12.7--- 6545.0wx-wx3wx--31020.6 997.7 -0.2---------
2019-06-18 02:00:00 17.1 10.0 12.8--- 6345.0wx-wx2wx---1020.5 997.6 -0.7---------
2019-06-18 01:00:00 18.0 9.9 13.1--- 5950.0wx-wx2wx---1020.5 997.7 -0.3---------
2019-06-18 00:00:00 18.6 9.9 13.4--- 5750.0wx-wx2wx--21020.7 997.9 0.1- 0.06------
1.5 ms

 

Print Friendly, PDF & Email